sensor_id;sensor_type;location;lat;lon;timestamp;P1;durP1;ratioP1;P2;durP2;ratioP2
3677;SDS011;1855;50.934;6.958;2024-03-17T05:29:29;9.40;;;8.30;;
3677;SDS011;1855;50.934;6.958;2024-03-17T05:31:56;8.50;;;7.70;;
3677;SDS011;1855;50.934;6.958;2024-03-17T05:34:22;8.68;;;7.88;;
3677;SDS011;1855;50.934;6.958;2024-03-17T05:36:50;8.18;;;7.38;;
3677;SDS011;1855;50.934;6.958;2024-03-17T05:39:17;7.80;;;7.00;;
3677;SDS011;1855;50.934;6.958;2024-03-17T05:41:45;8.52;;;7.50;;
3677;SDS011;1855;50.934;6.958;2024-03-17T05:44:13;8.47;;;7.57;;
3677;SDS011;1855;50.934;6.958;2024-03-17T05:46:42;8.35;;;7.55;;
3677;SDS011;1855;50.934;6.958;2024-03-17T05:49:08;8.80;;;7.90;;
3677;SDS011;1855;50.934;6.958;2024-03-17T05:51:35;8.47;;;7.67;;
3677;SDS011;1855;50.934;6.958;2024-03-17T05:54:02;9.35;;;7.40;;
3677;SDS011;1855;50.934;6.958;2024-03-17T05:56:29;10.27;;;7.18;;
3677;SDS011;1855;50.934;6.958;2024-03-17T05:58:55;7.93;;;7.13;;
3677;SDS011;1855;50.934;6.958;2024-03-17T06:01:22;8.20;;;7.20;;
3677;SDS011;1855;50.934;6.958;2024-03-17T06:03:50;9.23;;;7.57;;
3677;SDS011;1855;50.934;6.958;2024-03-17T06:06:17;9.02;;;8.13;;
3677;SDS011;1855;50.934;6.958;2024-03-17T06:08:43;8.35;;;7.55;;
3677;SDS011;1855;50.934;6.958;2024-03-17T06:11:10;9.00;;;7.80;;
3677;SDS011;1855;50.934;6.958;2024-03-17T06:13:37;8.15;;;7.45;;
3677;SDS011;1855;50.934;6.958;2024-03-17T06:16:04;8.83;;;7.40;;
3677;SDS011;1855;50.934;6.958;2024-03-17T06:18:31;9.10;;;8.30;;
3677;SDS011;1855;50.934;6.958;2024-03-17T06:20:59;9.90;;;8.23;;
3677;SDS011;1855;50.934;6.958;2024-03-17T06:23:26;9.93;;;8.30;;
3677;SDS011;1855;50.934;6.958;2024-03-17T06:25:53;10.40;;;8.30;;
3677;SDS011;1855;50.934;6.958;2024-03-17T06:28:20;10.15;;;8.57;;
3677;SDS011;1855;50.934;6.958;2024-03-17T06:30:54;8.77;;;7.97;;
3677;SDS011;1855;50.934;6.958;2024-03-17T06:33:24;9.00;;;8.10;;
3677;SDS011;1855;50.934;6.958;2024-03-17T06:35:51;9.95;;;8.95;;
3677;SDS011;1855;50.934;6.958;2024-03-17T06:38:19;9.50;;;8.60;;
3677;SDS011;1855;50.934;6.958;2024-03-17T06:40:49;8.80;;;7.90;;
3677;SDS011;1855;50.934;6.958;2024-03-17T06:43:16;8.57;;;7.67;;
3677;SDS011;1855;50.934;6.958;2024-03-17T06:45:42;9.40;;;7.82;;
3677;SDS011;1855;50.934;6.958;2024-03-17T06:48:09;8.98;;;8.07;;
3677;SDS011;1855;50.934;6.958;2024-03-17T06:50:37;8.82;;;8.02;;
3677;SDS011;1855;50.934;6.958;2024-03-17T06:53:05;8.60;;;7.70;;
3677;SDS011;1855;50.934;6.958;2024-03-17T06:55:35;9.33;;;8.10;;
3677;SDS011;1855;50.934;6.958;2024-03-17T06:58:01;8.65;;;7.22;;
3677;SDS011;1855;50.934;6.958;2024-03-17T07:00:28;8.80;;;8.00;;
3677;SDS011;1855;50.934;6.958;2024-03-17T07:02:55;8.97;;;7.40;;
3677;SDS011;1855;50.934;6.958;2024-03-17T07:05:22;7.70;;;7.00;;
3677;SDS011;1855;50.934;6.958;2024-03-17T07:07:49;7.93;;;7.13;;
3677;SDS011;1855;50.934;6.958;2024-03-17T07:10:16;8.35;;;7.45;;
3677;SDS011;1855;50.934;6.958;2024-03-17T07:12:45;8.00;;;7.25;;
3677;SDS011;1855;50.934;6.958;2024-03-17T07:15:11;7.60;;;6.80;;
3677;SDS011;1855;50.934;6.958;2024-03-17T07:17:38;7.30;;;6.55;;
3677;SDS011;1855;50.934;6.958;2024-03-17T07:20:05;8.23;;;7.18;;
3677;SDS011;1855;50.934;6.958;2024-03-17T07:22:34;8.00;;;7.20;;
3677;SDS011;1855;50.934;6.958;2024-03-17T07:25:01;8.70;;;7.47;;
3677;SDS011;1855;50.934;6.958;2024-03-17T07:27:27;7.87;;;7.07;;
3677;SDS011;1855;50.934;6.958;2024-03-17T07:29:55;7.55;;;6.85;;
3677;SDS011;1855;50.934;6.958;2024-03-17T07:32:22;8.00;;;7.30;;
3677;SDS011;1855;50.934;6.958;2024-03-17T07:34:49;7.47;;;6.78;;
3677;SDS011;1855;50.934;6.958;2024-03-17T07:37:16;8.35;;;7.30;;
3677;SDS011;1855;50.934;6.958;2024-03-17T07:39:42;7.82;;;7.05;;
3677;SDS011;1855;50.934;6.958;2024-03-17T07:42:09;8.32;;;7.32;;
3677;SDS011;1855;50.934;6.958;2024-03-17T07:44:38;7.30;;;6.60;;
3677;SDS011;1855;50.934;6.958;2024-03-17T07:47:06;7.43;;;6.80;;
3677;SDS011;1855;50.934;6.958;2024-03-17T07:49:33;7.68;;;5.90;;
3677;SDS011;1855;50.934;6.958;2024-03-17T07:51:59;7.90;;;7.10;;
3677;SDS011;1855;50.934;6.958;2024-03-17T07:54:27;7.65;;;7.03;;
3677;SDS011;1855;50.934;6.958;2024-03-17T07:56:53;7.50;;;6.70;;
3677;SDS011;1855;50.934;6.958;2024-03-17T07:59:20;7.38;;;6.68;;
3677;SDS011;1855;50.934;6.958;2024-03-17T08:01:47;7.20;;;6.60;;
3677;SDS011;1855;50.934;6.958;2024-03-17T08:04:15;7.20;;;6.50;;
3677;SDS011;1855;50.934;6.958;2024-03-17T08:06:42;6.93;;;6.22;;
3677;SDS011;1855;50.934;6.958;2024-03-17T08:09:09;6.50;;;5.80;;
3677;SDS011;1855;50.934;6.958;2024-03-17T08:11:37;6.55;;;5.90;;
3677;SDS011;1855;50.934;6.958;2024-03-17T08:14:08;6.15;;;5.55;;
3677;SDS011;1855;50.934;6.958;2024-03-17T08:16:35;6.60;;;6.00;;
3677;SDS011;1855;50.934;6.958;2024-03-17T08:19:02;6.80;;;6.10;;
3677;SDS011;1855;50.934;6.958;2024-03-17T08:21:30;5.78;;;5.28;;
3677;SDS011;1855;50.934;6.958;2024-03-17T08:23:57;6.47;;;5.88;;
3677;SDS011;1855;50.934;6.958;2024-03-17T08:26:24;5.70;;;5.20;;
3677;SDS011;1855;50.934;6.958;2024-03-17T08:28:51;6.00;;;5.50;;
3677;SDS011;1855;50.934;6.958;2024-03-17T08:31:18;5.90;;;5.30;;
3677;SDS011;1855;50.934;6.958;2024-03-17T08:33:44;6.05;;;5.45;;
3677;SDS011;1855;50.934;6.958;2024-03-17T08:36:12;6.20;;;5.60;;
3677;SDS011;1855;50.934;6.958;2024-03-17T08:38:45;5.40;;;4.90;;
3677;SDS011;1855;50.934;6.958;2024-03-17T08:41:12;6.25;;;5.65;;
3677;SDS011;1855;50.934;6.958;2024-03-17T08:43:40;6.10;;;5.50;;
3677;SDS011;1855;50.934;6.958;2024-03-17T08:46:08;5.00;;;4.60;;
3677;SDS011;1855;50.934;6.958;2024-03-17T08:48:36;5.00;;;4.50;;
3677;SDS011;1855;50.934;6.958;2024-03-17T08:51:04;5.82;;;5.32;;
3677;SDS011;1855;50.934;6.958;2024-03-17T08:53:32;5.18;;;4.68;;
3677;SDS011;1855;50.934;6.958;2024-03-17T08:56:02;5.97;;;5.38;;
3677;SDS011;1855;50.934;6.958;2024-03-17T08:58:29;5.60;;;5.00;;
3677;SDS011;1855;50.934;6.958;2024-03-17T09:00:56;6.45;;;5.85;;
3677;SDS011;1855;50.934;6.958;2024-03-17T09:03:23;7.45;;;5.78;;
3677;SDS011;1855;50.934;6.958;2024-03-17T09:05:52;4.97;;;4.57;;
3677;SDS011;1855;50.934;6.958;2024-03-17T09:08:20;5.20;;;4.70;;
3677;SDS011;1855;50.934;6.958;2024-03-17T09:10:48;5.30;;;4.80;;
3677;SDS011;1855;50.934;6.958;2024-03-17T09:13:17;4.70;;;4.30;;
3677;SDS011;1855;50.934;6.958;2024-03-17T09:15:51;5.30;;;4.80;;
3677;SDS011;1855;50.934;6.958;2024-03-17T09:18:18;5.90;;;4.70;;
3677;SDS011;1855;50.934;6.958;2024-03-17T09:20:45;4.90;;;4.40;;
3677;SDS011;1855;50.934;6.958;2024-03-17T09:23:20;4.70;;;4.20;;
3677;SDS011;1855;50.934;6.958;2024-03-17T09:25:54;5.00;;;4.50;;
3677;SDS011;1855;50.934;6.958;2024-03-17T09:28:23;5.03;;;4.40;;
3677;SDS011;1855;50.934;6.958;2024-03-17T09:30:49;4.80;;;4.30;;
3677;SDS011;1855;50.934;6.958;2024-03-17T09:33:17;5.13;;;4.40;;
3677;SDS011;1855;50.934;6.958;2024-03-17T09:35:52;4.68;;;4.28;;
3677;SDS011;1855;50.934;6.958;2024-03-17T09:38:19;4.40;;;4.00;;
3677;SDS011;1855;50.934;6.958;2024-03-17T09:40:46;4.78;;;4.38;;
3677;SDS011;1855;50.934;6.958;2024-03-17T09:43:14;4.75;;;4.35;;
3677;SDS011;1855;50.934;6.958;2024-03-17T09:45:43;4.68;;;4.15;;
3677;SDS011;1855;50.934;6.958;2024-03-17T09:48:11;5.43;;;4.28;;
3677;SDS011;1855;50.934;6.958;2024-03-17T09:50:40;4.45;;;4.05;;
3677;SDS011;1855;50.934;6.958;2024-03-17T09:53:08;4.78;;;4.38;;
3677;SDS011;1855;50.934;6.958;2024-03-17T09:55:43;5.13;;;4.10;;
3677;SDS011;1855;50.934;6.958;2024-03-17T09:58:10;4.38;;;3.83;;
3677;SDS011;1855;50.934;6.958;2024-03-17T10:00:43;4.60;;;4.10;;
3677;SDS011;1855;50.934;6.958;2024-03-17T10:03:11;4.90;;;4.10;;
3677;SDS011;1855;50.934;6.958;2024-03-17T10:05:38;4.72;;;4.32;;
3677;SDS011;1855;50.934;6.958;2024-03-17T10:08:05;4.75;;;4.10;;
3677;SDS011;1855;50.934;6.958;2024-03-17T10:10:33;5.00;;;4.18;;
3677;SDS011;1855;50.934;6.958;2024-03-17T10:13:00;4.40;;;4.00;;
3677;SDS011;1855;50.934;6.958;2024-03-17T10:15:27;4.20;;;3.80;;
3677;SDS011;1855;50.934;6.958;2024-03-17T10:17:56;4.20;;;3.80;;
3677;SDS011;1855;50.934;6.958;2024-03-17T10:20:23;5.33;;;4.10;;
3677;SDS011;1855;50.934;6.958;2024-03-17T10:22:57;5.05;;;4.30;;
3677;SDS011;1855;50.934;6.958;2024-03-17T10:25:29;3.90;;;3.60;;
3677;SDS011;1855;50.934;6.958;2024-03-17T10:27:56;3.63;;;3.33;;
3677;SDS011;1855;50.934;6.958;2024-03-17T10:30:23;4.30;;;3.90;;
3677;SDS011;1855;50.934;6.958;2024-03-17T10:32:56;4.18;;;3.25;;
3677;SDS011;1855;50.934;6.958;2024-03-17T10:35:27;4.30;;;3.90;;
3677;SDS011;1855;50.934;6.958;2024-03-17T10:37:56;4.60;;;4.00;;
3677;SDS011;1855;50.934;6.958;2024-03-17T10:40:24;3.90;;;3.17;;
3677;SDS011;1855;50.934;6.958;2024-03-17T10:42:51;3.55;;;3.00;;
3677;SDS011;1855;50.934;6.958;2024-03-17T10:45:18;4.10;;;3.40;;
3677;SDS011;1855;50.934;6.958;2024-03-17T10:47:47;4.78;;;3.40;;
3677;SDS011;1855;50.934;6.958;2024-03-17T10:50:17;4.10;;;3.30;;
3677;SDS011;1855;50.934;6.958;2024-03-17T10:52:46;3.38;;;3.08;;
3677;SDS011;1855;50.934;6.958;2024-03-17T10:55:22;4.00;;;3.30;;
3677;SDS011;1855;50.934;6.958;2024-03-17T10:57:50;4.68;;;3.40;;
3677;SDS011;1855;50.934;6.958;2024-03-17T11:00:19;4.30;;;3.50;;
3677;SDS011;1855;50.934;6.958;2024-03-17T11:02:48;3.50;;;3.20;;
3677;SDS011;1855;50.934;6.958;2024-03-17T11:05:18;4.00;;;3.60;;
3677;SDS011;1855;50.934;6.958;2024-03-17T11:07:48;3.60;;;3.03;;
3677;SDS011;1855;50.934;6.958;2024-03-17T11:10:18;3.70;;;3.00;;
3677;SDS011;1855;50.934;6.958;2024-03-17T11:12:47;4.00;;;3.70;;
3677;SDS011;1855;50.934;6.958;2024-03-17T11:15:37;3.50;;;3.20;;
3677;SDS011;1855;50.934;6.958;2024-03-17T11:21:02;3.63;;;3.33;;
3677;SDS011;1855;50.934;6.958;2024-03-17T11:23:35;3.25;;;2.95;;
3677;SDS011;1855;50.934;6.958;2024-03-17T11:26:06;4.73;;;3.50;;
3677;SDS011;1855;50.934;6.958;2024-03-17T11:31:35;4.88;;;3.03;;
3677;SDS011;1855;50.934;6.958;2024-03-17T11:37:00;3.40;;;3.10;;
3677;SDS011;1855;50.934;6.958;2024-03-17T11:42:16;3.60;;;3.30;;
3677;SDS011;1855;50.934;6.958;2024-03-17T11:44:42;3.30;;;2.83;;
3677;SDS011;1855;50.934;6.958;2024-03-17T11:47:10;3.70;;;2.95;;
3677;SDS011;1855;50.934;6.958;2024-03-17T11:49:36;4.75;;;3.30;;
3677;SDS011;1855;50.934;6.958;2024-03-17T11:52:09;3.90;;;3.47;;
3677;SDS011;1855;50.934;6.958;2024-03-17T11:54:36;3.60;;;3.30;;
3677;SDS011;1855;50.934;6.958;2024-03-17T11:57:05;3.57;;;3.27;;
3677;SDS011;1855;50.934;6.958;2024-03-17T11:59:32;3.88;;;3.58;;
3677;SDS011;1855;50.934;6.958;2024-03-17T12:01:59;4.25;;;3.85;;
3677;SDS011;1855;50.934;6.958;2024-03-17T12:04:26;3.60;;;3.30;;
3677;SDS011;1855;50.934;6.958;2024-03-17T12:06:54;3.72;;;3.30;;
3677;SDS011;1855;50.934;6.958;2024-03-17T12:09:23;3.67;;;3.37;;
3677;SDS011;1855;50.934;6.958;2024-03-17T12:11:51;3.60;;;3.30;;
3677;SDS011;1855;50.934;6.958;2024-03-17T12:14:24;4.53;;;3.72;;
3677;SDS011;1855;50.934;6.958;2024-03-17T12:16:52;4.30;;;3.90;;
3677;SDS011;1855;50.934;6.958;2024-03-17T12:19:19;4.47;;;3.45;;
3677;SDS011;1855;50.934;6.958;2024-03-17T12:21:47;3.88;;;3.40;;
3677;SDS011;1855;50.934;6.958;2024-03-17T12:24:15;4.70;;;3.70;;
3677;SDS011;1855;50.934;6.958;2024-03-17T12:26:45;4.20;;;3.80;;
3677;SDS011;1855;50.934;6.958;2024-03-17T12:29:23;4.35;;;3.60;;
3677;SDS011;1855;50.934;6.958;2024-03-17T12:31:50;3.55;;;3.25;;
3677;SDS011;1855;50.934;6.958;2024-03-17T12:34:18;3.97;;;3.40;;
3677;SDS011;1855;50.934;6.958;2024-03-17T12:36:44;3.65;;;3.25;;
3677;SDS011;1855;50.934;6.958;2024-03-17T12:39:15;4.20;;;3.80;;
3677;SDS011;1855;50.934;6.958;2024-03-17T12:41:45;4.18;;;3.50;;
3677;SDS011;1855;50.934;6.958;2024-03-17T12:44:21;4.20;;;3.70;;
3677;SDS011;1855;50.934;6.958;2024-03-17T12:46:54;4.80;;;3.30;;
3677;SDS011;1855;50.934;6.958;2024-03-17T12:49:21;4.60;;;3.30;;
3677;SDS011;1855;50.934;6.958;2024-03-17T12:51:50;3.80;;;3.50;;
3677;SDS011;1855;50.934;6.958;2024-03-17T12:54:19;3.67;;;3.38;;
3677;SDS011;1855;50.934;6.958;2024-03-17T12:56:47;3.65;;;3.35;;
3677;SDS011;1855;50.934;6.958;2024-03-17T12:59:41;4.43;;;3.92;;
3677;SDS011;1855;50.934;6.958;2024-03-17T13:02:35;4.45;;;3.58;;
3677;SDS011;1855;50.934;6.958;2024-03-17T13:05:07;3.63;;;3.33;;
3677;SDS011;1855;50.934;6.958;2024-03-17T13:07:40;3.15;;;2.85;;
3677;SDS011;1855;50.934;6.958;2024-03-17T13:10:07;3.60;;;3.30;;
3677;SDS011;1855;50.934;6.958;2024-03-17T13:12:34;3.70;;;3.30;;
3677;SDS011;1855;50.934;6.958;2024-03-17T13:15:01;4.35;;;3.45;;
3677;SDS011;1855;50.934;6.958;2024-03-17T13:17:30;4.28;;;3.60;;
3677;SDS011;1855;50.934;6.958;2024-03-17T13:19:58;5.05;;;3.30;;
3677;SDS011;1855;50.934;6.958;2024-03-17T13:22:25;3.60;;;3.30;;
3677;SDS011;1855;50.934;6.958;2024-03-17T13:24:52;4.50;;;3.30;;
3677;SDS011;1855;50.934;6.958;2024-03-17T13:27:19;3.45;;;3.15;;
3677;SDS011;1855;50.934;6.958;2024-03-17T13:29:48;4.22;;;3.28;;
3677;SDS011;1855;50.934;6.958;2024-03-17T13:32:15;4.35;;;3.50;;
3677;SDS011;1855;50.934;6.958;2024-03-17T13:34:42;4.10;;;3.03;;
3677;SDS011;1855;50.934;6.958;2024-03-17T13:37:09;3.28;;;2.70;;
3677;SDS011;1855;50.934;6.958;2024-03-17T13:39:36;3.95;;;3.40;;
3677;SDS011;1855;50.934;6.958;2024-03-17T13:42:03;3.80;;;3.10;;
3677;SDS011;1855;50.934;6.958;2024-03-17T13:44:31;3.17;;;2.88;;
3677;SDS011;1855;50.934;6.958;2024-03-17T13:46:59;4.13;;;2.80;;
3677;SDS011;1855;50.934;6.958;2024-03-17T13:49:28;3.20;;;2.90;;
3677;SDS011;1855;50.934;6.958;2024-03-17T13:51:55;4.77;;;2.80;;
3677;SDS011;1855;50.934;6.958;2024-03-17T13:54:22;3.78;;;2.70;;
3677;SDS011;1855;50.934;6.958;2024-03-17T13:56:49;4.40;;;3.20;;
3677;SDS011;1855;50.934;6.958;2024-03-17T13:59:16;3.35;;;3.05;;
3677;SDS011;1855;50.934;6.958;2024-03-17T14:01:43;3.72;;;3.10;;
3677;SDS011;1855;50.934;6.958;2024-03-17T14:04:14;3.50;;;3.05;;
3677;SDS011;1855;50.934;6.958;2024-03-17T14:06:41;3.80;;;2.90;;
3677;SDS011;1855;50.934;6.958;2024-03-17T14:09:07;4.28;;;3.13;;
3677;SDS011;1855;50.934;6.958;2024-03-17T14:11:35;4.18;;;3.20;;
3677;SDS011;1855;50.934;6.958;2024-03-17T14:14:03;4.23;;;3.00;;
3677;SDS011;1855;50.934;6.958;2024-03-17T14:16:30;3.92;;;3.30;;
3677;SDS011;1855;50.934;6.958;2024-03-17T14:18:58;3.70;;;3.28;;
3677;SDS011;1855;50.934;6.958;2024-03-17T14:21:26;3.92;;;3.17;;
3677;SDS011;1855;50.934;6.958;2024-03-17T14:23:53;3.70;;;3.30;;
3677;SDS011;1855;50.934;6.958;2024-03-17T14:26:20;4.20;;;2.90;;
3677;SDS011;1855;50.934;6.958;2024-03-17T14:28:47;3.30;;;3.00;;
3677;SDS011;1855;50.934;6.958;2024-03-17T14:31:15;3.40;;;2.88;;
3677;SDS011;1855;50.934;6.958;2024-03-17T14:33:42;3.28;;;2.80;;
3677;SDS011;1855;50.934;6.958;2024-03-17T14:36:09;3.58;;;3.05;;
3677;SDS011;1855;50.934;6.958;2024-03-17T14:38:37;3.33;;;3.00;;
3677;SDS011;1855;50.934;6.958;2024-03-17T14:41:04;3.50;;;3.20;;
3677;SDS011;1855;50.934;6.958;2024-03-17T14:43:31;2.90;;;2.70;;
3677;SDS011;1855;50.934;6.958;2024-03-17T14:46:03;4.33;;;3.00;;
3677;SDS011;1855;50.934;6.958;2024-03-17T14:48:30;3.70;;;3.00;;
3677;SDS011;1855;50.934;6.958;2024-03-17T14:50:56;3.35;;;3.05;;
3677;SDS011;1855;50.934;6.958;2024-03-17T14:53:23;2.93;;;2.63;;
3677;SDS011;1855;50.934;6.958;2024-03-17T14:55:51;3.20;;;2.60;;
3677;SDS011;1855;50.934;6.958;2024-03-17T14:58:18;3.53;;;2.47;;
3677;SDS011;1855;50.934;6.958;2024-03-17T15:00:46;4.10;;;3.00;;
3677;SDS011;1855;50.934;6.958;2024-03-17T15:03:13;3.90;;;2.70;;
3677;SDS011;1855;50.934;6.958;2024-03-17T15:05:39;3.33;;;3.03;;
3677;SDS011;1855;50.934;6.958;2024-03-17T15:08:07;4.95;;;3.60;;
3677;SDS011;1855;50.934;6.958;2024-03-17T15:10:34;4.03;;;2.60;;
3677;SDS011;1855;50.934;6.958;2024-03-17T15:13:03;3.40;;;2.65;;
3677;SDS011;1855;50.934;6.958;2024-03-17T15:15:30;2.55;;;2.33;;
3677;SDS011;1855;50.934;6.958;2024-03-17T15:17:56;3.35;;;2.53;;
3677;SDS011;1855;50.934;6.958;2024-03-17T15:20:23;4.20;;;2.87;;
3677;SDS011;1855;50.934;6.958;2024-03-17T15:22:50;4.20;;;2.73;;
3677;SDS011;1855;50.934;6.958;2024-03-17T15:25:17;3.20;;;2.47;;
3677;SDS011;1855;50.934;6.958;2024-03-17T15:27:47;2.40;;;2.20;;
3677;SDS011;1855;50.934;6.958;2024-03-17T15:30:15;2.90;;;2.40;;
3677;SDS011;1855;50.934;6.958;2024-03-17T15:32:43;3.70;;;2.58;;
3677;SDS011;1855;50.934;6.958;2024-03-17T15:35:10;2.60;;;2.40;;
3677;SDS011;1855;50.934;6.958;2024-03-17T15:37:38;4.15;;;3.10;;
3677;SDS011;1855;50.934;6.958;2024-03-17T15:40:06;2.70;;;2.50;;
3677;SDS011;1855;50.934;6.958;2024-03-17T15:42:33;4.10;;;2.80;;
3677;SDS011;1855;50.934;6.958;2024-03-17T15:45:00;4.10;;;2.75;;
3677;SDS011;1855;50.934;6.958;2024-03-17T15:47:28;4.20;;;3.20;;
3677;SDS011;1855;50.934;6.958;2024-03-17T15:49:54;3.63;;;3.33;;
3677;SDS011;1855;50.934;6.958;2024-03-17T15:52:21;4.20;;;3.80;;
3677;SDS011;1855;50.934;6.958;2024-03-17T15:54:48;3.70;;;3.40;;
3677;SDS011;1855;50.934;6.958;2024-03-17T15:57:15;4.05;;;3.10;;
3677;SDS011;1855;50.934;6.958;2024-03-17T15:59:41;4.25;;;3.58;;
3677;SDS011;1855;50.934;6.958;2024-03-17T16:02:11;4.38;;;3.50;;
3677;SDS011;1855;50.934;6.958;2024-03-17T16:04:39;3.58;;;3.20;;
3677;SDS011;1855;50.934;6.958;2024-03-17T16:07:08;8.17;;;3.10;;
3677;SDS011;1855;50.934;6.958;2024-03-17T16:09:34;3.70;;;3.40;;
3677;SDS011;1855;50.934;6.958;2024-03-17T16:12:01;4.50;;;3.50;;
3677;SDS011;1855;50.934;6.958;2024-03-17T16:14:28;4.10;;;3.40;;
3677;SDS011;1855;50.934;6.958;2024-03-17T16:16:55;3.72;;;3.20;;
3677;SDS011;1855;50.934;6.958;2024-03-17T16:19:22;3.63;;;3.33;;
3677;SDS011;1855;50.934;6.958;2024-03-17T16:21:51;3.63;;;3.30;;
3677;SDS011;1855;50.934;6.958;2024-03-17T16:24:18;4.20;;;3.60;;
3677;SDS011;1855;50.934;6.958;2024-03-17T16:26:44;4.95;;;3.20;;
3677;SDS011;1855;50.934;6.958;2024-03-17T16:29:12;3.40;;;3.10;;
3677;SDS011;1855;50.934;6.958;2024-03-17T16:31:40;4.13;;;3.20;;
3677;SDS011;1855;50.934;6.958;2024-03-17T16:34:07;3.60;;;3.03;;
3677;SDS011;1855;50.934;6.958;2024-03-17T16:36:36;5.80;;;3.40;;
3677;SDS011;1855;50.934;6.958;2024-03-17T16:39:07;4.28;;;3.40;;
3677;SDS011;1855;50.934;6.958;2024-03-17T16:41:35;4.18;;;3.42;;
3677;SDS011;1855;50.934;6.958;2024-03-17T16:44:03;4.22;;;3.47;;
3677;SDS011;1855;50.934;6.958;2024-03-17T16:46:40;3.40;;;3.10;;
3677;SDS011;1855;50.934;6.958;2024-03-17T16:49:28;4.60;;;3.40;;
3677;SDS011;1855;50.934;6.958;2024-03-17T16:51:57;3.72;;;3.40;;
3677;SDS011;1855;50.934;6.958;2024-03-17T16:54:25;5.00;;;3.60;;
3677;SDS011;1855;50.934;6.958;2024-03-17T16:56:52;5.00;;;3.80;;
3677;SDS011;1855;50.934;6.958;2024-03-17T16:59:19;4.45;;;3.70;;
3677;SDS011;1855;50.934;6.958;2024-03-17T17:01:48;3.90;;;3.40;;
3677;SDS011;1855;50.934;6.958;2024-03-17T17:04:15;4.28;;;3.33;;
3677;SDS011;1855;50.934;6.958;2024-03-17T17:06:41;4.13;;;3.30;;
3677;SDS011;1855;50.934;6.958;2024-03-17T17:09:08;4.72;;;3.70;;
3677;SDS011;1855;50.934;6.958;2024-03-17T17:11:37;4.00;;;3.60;;
3677;SDS011;1855;50.934;6.958;2024-03-17T17:14:04;4.57;;;3.85;;
3677;SDS011;1855;50.934;6.958;2024-03-17T17:16:33;4.10;;;3.70;;
3677;SDS011;1855;50.934;6.958;2024-03-17T17:19:00;3.90;;;3.40;;
3677;SDS011;1855;50.934;6.958;2024-03-17T17:21:29;4.90;;;3.60;;
3677;SDS011;1855;50.934;6.958;2024-03-17T17:23:57;5.10;;;3.90;;
3677;SDS011;1855;50.934;6.958;2024-03-17T17:26:24;5.47;;;3.97;;
3677;SDS011;1855;50.934;6.958;2024-03-17T17:28:54;4.70;;;3.50;;
3677;SDS011;1855;50.934;6.958;2024-03-17T17:31:22;6.47;;;4.55;;
3677;SDS011;1855;50.934;6.958;2024-03-17T17:33:50;4.13;;;3.70;;
3677;SDS011;1855;50.934;6.958;2024-03-17T17:36:16;4.55;;;3.67;;
3677;SDS011;1855;50.934;6.958;2024-03-17T17:38:43;4.80;;;3.50;;
3677;SDS011;1855;50.934;6.958;2024-03-17T17:41:10;4.20;;;3.25;;
3677;SDS011;1855;50.934;6.958;2024-03-17T17:43:39;4.43;;;3.50;;
3677;SDS011;1855;50.934;6.958;2024-03-17T17:46:08;3.50;;;2.90;;
3677;SDS011;1855;50.934;6.958;2024-03-17T17:48:36;3.15;;;2.80;;
3677;SDS011;1855;50.934;6.958;2024-03-17T17:51:04;4.22;;;3.00;;
3677;SDS011;1855;50.934;6.958;2024-03-17T17:53:31;6.75;;;3.10;;
3677;SDS011;1855;50.934;6.958;2024-03-17T17:55:58;3.30;;;2.50;;
3677;SDS011;1855;50.934;6.958;2024-03-17T17:58:26;4.18;;;2.72;;
3677;SDS011;1855;50.934;6.958;2024-03-17T18:00:56;3.83;;;2.70;;
3677;SDS011;1855;50.934;6.958;2024-03-17T18:03:24;3.28;;;2.30;;
3677;SDS011;1855;50.934;6.958;2024-03-17T18:05:51;3.60;;;2.40;;
3677;SDS011;1855;50.934;6.958;2024-03-17T18:08:19;3.40;;;2.15;;
3677;SDS011;1855;50.934;6.958;2024-03-17T18:10:45;3.30;;;2.28;;
3677;SDS011;1855;50.934;6.958;2024-03-17T18:13:12;3.00;;;2.47;;
3677;SDS011;1855;50.934;6.958;2024-03-17T18:15:39;3.60;;;2.47;;
3677;SDS011;1855;50.934;6.958;2024-03-17T18:18:06;3.20;;;2.33;;
3677;SDS011;1855;50.934;6.958;2024-03-17T18:20:34;3.10;;;2.20;;
3677;SDS011;1855;50.934;6.958;2024-03-17T18:23:01;2.30;;;1.92;;
3677;SDS011;1855;50.934;6.958;2024-03-17T18:25:29;3.72;;;2.13;;
3677;SDS011;1855;50.934;6.958;2024-03-17T18:27:58;4.18;;;2.45;;
3677;SDS011;1855;50.934;6.958;2024-03-17T18:30:25;3.30;;;2.20;;
3677;SDS011;1855;50.934;6.958;2024-03-17T18:32:53;2.72;;;2.10;;
3677;SDS011;1855;50.934;6.958;2024-03-17T18:35:22;5.50;;;2.50;;
3677;SDS011;1855;50.934;6.958;2024-03-17T18:37:50;2.33;;;2.10;;
3677;SDS011;1855;50.934;6.958;2024-03-17T18:40:18;3.83;;;2.30;;
3677;SDS011;1855;50.934;6.958;2024-03-17T18:42:45;2.80;;;2.30;;
3677;SDS011;1855;50.934;6.958;2024-03-17T18:45:14;3.05;;;2.30;;
3677;SDS011;1855;50.934;6.958;2024-03-17T18:47:43;3.28;;;2.30;;
3677;SDS011;1855;50.934;6.958;2024-03-17T18:50:10;3.22;;;2.90;;
3677;SDS011;1855;50.934;6.958;2024-03-17T18:52:37;3.08;;;2.50;;
3677;SDS011;1855;50.934;6.958;2024-03-17T18:55:06;3.90;;;2.40;;
3677;SDS011;1855;50.934;6.958;2024-03-17T18:57:34;3.40;;;2.50;;
3677;SDS011;1855;50.934;6.958;2024-03-17T19:00:02;3.33;;;2.30;;
3677;SDS011;1855;50.934;6.958;2024-03-17T19:02:29;3.42;;;2.50;;
3677;SDS011;1855;50.934;6.958;2024-03-17T19:04:57;4.07;;;2.90;;
3677;SDS011;1855;50.934;6.958;2024-03-17T19:07:24;3.90;;;2.90;;
3677;SDS011;1855;50.934;6.958;2024-03-17T19:09:54;4.18;;;3.00;;
3677;SDS011;1855;50.934;6.958;2024-03-17T19:12:22;4.60;;;2.95;;
3677;SDS011;1855;50.934;6.958;2024-03-17T19:14:49;3.53;;;3.05;;
3677;SDS011;1855;50.934;6.958;2024-03-17T19:17:16;4.18;;;3.50;;
3677;SDS011;1855;50.934;6.958;2024-03-17T19:19:43;4.55;;;3.50;;
3677;SDS011;1855;50.934;6.958;2024-03-17T19:22:10;3.30;;;2.83;;
3677;SDS011;1855;50.934;6.958;2024-03-17T19:24:37;4.55;;;3.45;;
3677;SDS011;1855;50.934;6.958;2024-03-17T19:27:05;3.75;;;3.08;;
3677;SDS011;1855;50.934;6.958;2024-03-17T19:29:33;4.32;;;3.00;;
3677;SDS011;1855;50.934;6.958;2024-03-17T19:31:59;3.58;;;3.10;;
3677;SDS011;1855;50.934;6.958;2024-03-17T19:34:26;3.60;;;3.30;;
3677;SDS011;1855;50.934;6.958;2024-03-17T19:36:53;3.60;;;3.00;;
3677;SDS011;1855;50.934;6.958;2024-03-17T19:39:19;3.72;;;3.30;;
3677;SDS011;1855;50.934;6.958;2024-03-17T19:41:46;4.05;;;3.28;;
3677;SDS011;1855;50.934;6.958;2024-03-17T19:44:14;4.40;;;3.40;;
3677;SDS011;1855;50.934;6.958;2024-03-17T19:46:42;4.38;;;3.40;;
3677;SDS011;1855;50.934;6.958;2024-03-17T19:49:09;4.50;;;3.35;;
3677;SDS011;1855;50.934;6.958;2024-03-17T19:51:35;4.00;;;3.53;;
3677;SDS011;1855;50.934;6.958;2024-03-17T19:54:02;4.18;;;3.40;;
3677;SDS011;1855;50.934;6.958;2024-03-17T19:56:30;4.20;;;3.63;;
3677;SDS011;1855;50.934;6.958;2024-03-17T19:58:57;4.55;;;3.30;;
3677;SDS011;1855;50.934;6.958;2024-03-17T20:01:24;4.20;;;3.30;;
3677;SDS011;1855;50.934;6.958;2024-03-17T20:03:52;3.92;;;3.55;;
3677;SDS011;1855;50.934;6.958;2024-03-17T20:06:19;3.70;;;3.40;;
3677;SDS011;1855;50.934;6.958;2024-03-17T20:08:47;4.10;;;3.65;;
3677;SDS011;1855;50.934;6.958;2024-03-17T20:11:14;3.72;;;3.42;;
3677;SDS011;1855;50.934;6.958;2024-03-17T20:13:42;4.47;;;3.10;;
3677;SDS011;1855;50.934;6.958;2024-03-17T20:16:11;6.00;;;3.38;;
3677;SDS011;1855;50.934;6.958;2024-03-17T20:18:43;5.60;;;4.07;;
3677;SDS011;1855;50.934;6.958;2024-03-17T20:21:11;4.82;;;3.70;;
3677;SDS011;1855;50.934;6.958;2024-03-17T20:23:38;4.63;;;4.10;;
3677;SDS011;1855;50.934;6.958;2024-03-17T20:26:06;4.00;;;3.60;;
3677;SDS011;1855;50.934;6.958;2024-03-17T20:28:34;3.80;;;3.50;;
3677;SDS011;1855;50.934;6.958;2024-03-17T20:31:01;4.45;;;4.03;;
3677;SDS011;1855;50.934;6.958;2024-03-17T20:33:29;4.38;;;3.70;;
3677;SDS011;1855;50.934;6.958;2024-03-17T20:35:55;5.30;;;3.70;;
3677;SDS011;1855;50.934;6.958;2024-03-17T20:38:24;4.55;;;4.05;;
3677;SDS011;1855;50.934;6.958;2024-03-17T20:40:51;5.15;;;4.53;;
3677;SDS011;1855;50.934;6.958;2024-03-17T20:43:17;6.85;;;4.90;;
3677;SDS011;1855;50.934;6.958;2024-03-17T20:45:44;4.90;;;4.40;;
3677;SDS011;1855;50.934;6.958;2024-03-17T20:48:11;5.20;;;4.37;;
3677;SDS011;1855;50.934;6.958;2024-03-17T20:50:37;5.10;;;4.60;;
3677;SDS011;1855;50.934;6.958;2024-03-17T20:53:04;5.05;;;4.50;;
3677;SDS011;1855;50.934;6.958;2024-03-17T20:55:33;5.00;;;4.60;;
3677;SDS011;1855;50.934;6.958;2024-03-17T20:58:00;5.10;;;4.60;;
3677;SDS011;1855;50.934;6.958;2024-03-17T21:00:27;5.63;;;4.95;;